sensor_id;sensor_type;location;lat;lon;timestamp;temperature;humidity
73570;SHT30;61850;54.980;73.298;2023-01-13T00:01:19;-11.94;84.65
73570;SHT30;61850;54.980;73.298;2023-01-13T00:03:56;-11.94;84.53
73570;SHT30;61850;54.980;73.298;2023-01-13T00:06:22;-11.94;84.33
73570;SHT30;61850;54.980;73.298;2023-01-13T00:08:50;-11.95;84.15
73570;SHT30;61850;54.980;73.298;2023-01-13T00:11:22;-11.88;84.05
73570;SHT30;61850;54.980;73.298;2023-01-13T00:13:49;-11.93;83.94
73570;SHT30;61850;54.980;73.298;2023-01-13T00:16:16;-11.87;83.96
73570;SHT30;61850;54.980;73.298;2023-01-13T00:18:43;-11.88;83.90
73570;SHT30;61850;54.980;73.298;2023-01-13T00:21:14;-11.88;83.90
73570;SHT30;61850;54.980;73.298;2023-01-13T00:23:41;-11.88;83.84
73570;SHT30;61850;54.980;73.298;2023-01-13T00:26:11;-11.90;83.93
73570;SHT30;61850;54.980;73.298;2023-01-13T00:28:38;-11.94;83.93
73570;SHT30;61850;54.980;73.298;2023-01-13T00:31:18;-12.02;84.11
73570;SHT30;61850;54.980;73.298;2023-01-13T00:33:44;-12.07;84.30
73570;SHT30;61850;54.980;73.298;2023-01-13T00:36:12;-12.11;84.37
73570;SHT30;61850;54.980;73.298;2023-01-13T00:38:43;-12.16;84.51
73570;SHT30;61850;54.980;73.298;2023-01-13T00:41:20;-12.21;84.62
73570;SHT30;61850;54.980;73.298;2023-01-13T00:43:47;-12.20;84.79
73570;SHT30;61850;54.980;73.298;2023-01-13T00:46:14;-12.16;84.66
73570;SHT30;61850;54.980;73.298;2023-01-13T00:48:41;-12.18;84.71
73570;SHT30;61850;54.980;73.298;2023-01-13T00:51:17;-12.16;84.75
73570;SHT30;61850;54.980;73.298;2023-01-13T00:53:44;-12.14;84.80
73570;SHT30;61850;54.980;73.298;2023-01-13T00:56:13;-12.16;85.01
73570;SHT30;61850;54.980;73.298;2023-01-13T00:58:45;-12.14;85.02
73570;SHT30;61850;54.980;73.298;2023-01-13T01:01:12;-12.17;84.84
73570;SHT30;61850;54.980;73.298;2023-01-13T01:03:39;-12.16;84.75
73570;SHT30;61850;54.980;73.298;2023-01-13T01:06:17;-12.13;84.80
73570;SHT30;61850;54.980;73.298;2023-01-13T01:08:47;-12.13;84.86
73570;SHT30;61850;54.980;73.298;2023-01-13T01:11:20;-12.13;84.83
73570;SHT30;61850;54.980;73.298;2023-01-13T01:13:47;-12.16;84.98
73570;SHT30;61850;54.980;73.298;2023-01-13T01:16:14;-12.18;84.93
73570;SHT30;61850;54.980;73.298;2023-01-13T01:18:45;-12.18;85.04
73570;SHT30;61850;54.980;73.298;2023-01-13T01:21:17;-12.21;85.12
73570;SHT30;61850;54.980;73.298;2023-01-13T01:23:46;-12.22;85.21
73570;SHT30;61850;54.980;73.298;2023-01-13T01:26:13;-12.22;85.39
73570;SHT30;61850;54.980;73.298;2023-01-13T01:28:40;-12.28;85.41
73570;SHT30;61850;54.980;73.298;2023-01-13T01:31:16;-12.25;85.37
73570;SHT30;61850;54.980;73.298;2023-01-13T01:33:43;-12.28;85.40
73570;SHT30;61850;54.980;73.298;2023-01-13T01:36:11;-12.25;85.33
73570;SHT30;61850;54.980;73.298;2023-01-13T01:38:37;-12.25;85.30
73570;SHT30;61850;54.980;73.298;2023-01-13T01:41:04;-12.20;85.24
73570;SHT30;61850;54.980;73.298;2023-01-13T01:46:31;-12.20;85.14
73570;SHT30;61850;54.980;73.298;2023-01-13T01:54:30;-12.11;85.08
73570;SHT30;61850;54.980;73.298;2023-01-13T01:56:59;-12.07;85.09
73570;SHT30;61850;54.980;73.298;2023-01-13T01:59:27;-12.01;84.95
73570;SHT30;61850;54.980;73.298;2023-01-13T02:01:55;-11.95;84.87
73570;SHT30;61850;54.980;73.298;2023-01-13T02:04:32;-11.93;84.80
73570;SHT30;61850;54.980;73.298;2023-01-13T02:06:59;-11.90;84.66
73570;SHT30;61850;54.980;73.298;2023-01-13T02:09:26;-11.90;84.62
73570;SHT30;61850;54.980;73.298;2023-01-13T02:11:52;-11.88;84.71
73570;SHT30;61850;54.980;73.298;2023-01-13T02:14:37;-11.86;84.72
73570;SHT30;61850;54.980;73.298;2023-01-13T02:33:33;-11.88;84.75
73570;SHT30;61850;54.980;73.298;2023-01-13T02:38:56;-11.86;84.73
73570;SHT30;61850;54.980;73.298;2023-01-13T02:44:43;-11.86;84.62
73570;SHT30;61850;54.980;73.298;2023-01-13T02:49:48;-11.76;84.51
73570;SHT30;61850;54.980;73.298;2023-01-13T02:52:19;-11.83;84.70
73570;SHT30;61850;54.980;73.298;2023-01-13T02:54:48;-11.79;84.64
73570;SHT30;61850;54.980;73.298;2023-01-13T02:57:16;-11.79;84.59
73570;SHT30;61850;54.980;73.298;2023-01-13T02:59:53;-11.73;84.52
73570;SHT30;61850;54.980;73.298;2023-01-13T03:02:20;-11.79;84.48
73570;SHT30;61850;54.980;73.298;2023-01-13T03:04:53;-11.81;84.67
73570;SHT30;61850;54.980;73.298;2023-01-13T03:07:26;-11.81;84.91
73570;SHT30;61850;54.980;73.298;2023-01-13T03:12:54;-11.84;85.20
73570;SHT30;61850;54.980;73.298;2023-01-13T03:18:39;-11.84;85.30
73570;SHT30;61850;54.980;73.298;2023-01-13T03:21:12;-11.81;85.41
73570;SHT30;61850;54.980;73.298;2023-01-13T03:31:57;-11.79;85.56
73570;SHT30;61850;54.980;73.298;2023-01-13T03:34:27;-11.71;85.43
73570;SHT30;61850;54.980;73.298;2023-01-13T03:37:00;-11.70;85.23
73570;SHT30;61850;54.980;73.298;2023-01-13T03:39:28;-11.67;85.05
73570;SHT30;61850;54.980;73.298;2023-01-13T03:41:57;-11.66;84.98
73570;SHT30;61850;54.980;73.298;2023-01-13T03:44:29;-11.65;84.91
73570;SHT30;61850;54.980;73.298;2023-01-13T03:49:35;-11.60;84.58
73570;SHT30;61850;54.980;73.298;2023-01-13T03:52:08;-11.60;84.40
73570;SHT30;61850;54.980;73.298;2023-01-13T03:54:38;-11.62;84.11
73570;SHT30;61850;54.980;73.298;2023-01-13T03:57:08;-11.59;83.87
73570;SHT30;61850;54.980;73.298;2023-01-13T03:59:37;-11.58;83.90
73570;SHT30;61850;54.980;73.298;2023-01-13T04:02:13;-11.58;83.68
73570;SHT30;61850;54.980;73.298;2023-01-13T04:09:45;-11.45;82.97
73570;SHT30;61850;54.980;73.298;2023-01-13T04:12:16;-11.43;82.62
73570;SHT30;61850;54.980;73.298;2023-01-13T04:14:44;-11.40;82.49
73570;SHT30;61850;54.980;73.298;2023-01-13T04:17:11;-11.40;82.25
73570;SHT30;61850;54.980;73.298;2023-01-13T04:19:38;-11.42;81.98
73570;SHT30;61850;54.980;73.298;2023-01-13T04:22:04;-11.39;81.82
73570;SHT30;61850;54.980;73.298;2023-01-13T04:24:30;-11.34;81.42
73570;SHT30;61850;54.980;73.298;2023-01-13T04:26:57;-11.34;81.19
73570;SHT30;61850;54.980;73.298;2023-01-13T04:29:23;-11.35;81.07
73570;SHT30;61850;54.980;73.298;2023-01-13T04:31:49;-11.34;80.94
73570;SHT30;61850;54.980;73.298;2023-01-13T04:34:20;-11.28;80.94
73570;SHT30;61850;54.980;73.298;2023-01-13T04:36:53;-11.29;80.77
73570;SHT30;61850;54.980;73.298;2023-01-13T04:39:19;-11.28;80.74
73570;SHT30;61850;54.980;73.298;2023-01-13T04:41:45;-11.22;80.79
73570;SHT30;61850;54.980;73.298;2023-01-13T04:44:25;-11.18;80.64
73570;SHT30;61850;54.980;73.298;2023-01-13T04:47:01;-11.24;80.63
73570;SHT30;61850;54.980;73.298;2023-01-13T04:49:30;-11.21;80.72
73570;SHT30;61850;54.980;73.298;2023-01-13T04:52:07;-11.27;80.87
73570;SHT30;61850;54.980;73.298;2023-01-13T04:54:39;-11.24;80.95
73570;SHT30;61850;54.980;73.298;2023-01-13T04:57:06;-11.17;80.86
73570;SHT30;61850;54.980;73.298;2023-01-13T04:59:33;-11.24;80.79
73570;SHT30;61850;54.980;73.298;2023-01-13T05:01:59;-11.15;80.96
73570;SHT30;61850;54.980;73.298;2023-01-13T05:04:36;-11.11;80.90
73570;SHT30;61850;54.980;73.298;2023-01-13T05:07:03;-11.10;80.86
73570;SHT30;61850;54.980;73.298;2023-01-13T05:09:34;-11.07;80.62
73570;SHT30;61850;54.980;73.298;2023-01-13T05:12:01;-11.08;80.54
73570;SHT30;61850;54.980;73.298;2023-01-13T05:14:46;-11.01;80.28
73570;SHT30;61850;54.980;73.298;2023-01-13T05:17:41;-11.04;80.17
73570;SHT30;61850;54.980;73.298;2023-01-13T05:20:17;-10.96;80.13
73570;SHT30;61850;54.980;73.298;2023-01-13T05:22:54;-10.91;80.07
73570;SHT30;61850;54.980;73.298;2023-01-13T05:25:39;-10.92;79.97
73570;SHT30;61850;54.980;73.298;2023-01-13T05:28:06;-10.97;80.04
73570;SHT30;61850;54.980;73.298;2023-01-13T05:30:39;-10.98;80.09
73570;SHT30;61850;54.980;73.298;2023-01-13T05:33:16;-10.88;79.99
73570;SHT30;61850;54.980;73.298;2023-01-13T05:35:48;-10.98;80.02
73570;SHT30;61850;54.980;73.298;2023-01-13T05:38:15;-10.90;79.95
73570;SHT30;61850;54.980;73.298;2023-01-13T05:40:43;-10.96;79.89
73570;SHT30;61850;54.980;73.298;2023-01-13T05:43:28;-10.91;80.07
73570;SHT30;61850;54.980;73.298;2023-01-13T05:48:31;-10.94;79.84
73570;SHT30;61850;54.980;73.298;2023-01-13T05:50:58;-10.87;79.96
73570;SHT30;61850;54.980;73.298;2023-01-13T05:53:29;-10.80;79.71
73570;SHT30;61850;54.980;73.298;2023-01-13T05:55:56;-10.87;79.67
73570;SHT30;61850;54.980;73.298;2023-01-13T05:58:28;-10.84;79.63
73570;SHT30;61850;54.980;73.298;2023-01-13T06:01:07;-10.85;79.59
73570;SHT30;61850;54.980;73.298;2023-01-13T06:03:36;-10.85;79.64
73570;SHT30;61850;54.980;73.298;2023-01-13T06:06:03;-10.88;79.61
73570;SHT30;61850;54.980;73.298;2023-01-13T06:08:44;-10.96;79.85
73570;SHT30;61850;54.980;73.298;2023-01-13T06:11:11;-10.81;79.80
73570;SHT30;61850;54.980;73.298;2023-01-13T06:13:38;-10.83;79.60
73570;SHT30;61850;54.980;73.298;2023-01-13T06:16:05;-10.76;79.54
73570;SHT30;61850;54.980;73.298;2023-01-13T06:18:31;-10.73;79.59
73570;SHT30;61850;54.980;73.298;2023-01-13T06:21:07;-10.61;79.31
73570;SHT30;61850;54.980;73.298;2023-01-13T06:23:33;-10.59;79.06
73570;SHT30;61850;54.980;73.298;2023-01-13T06:26:13;-10.57;79.02
73570;SHT30;61850;54.980;73.298;2023-01-13T06:28:50;-10.49;78.84
73570;SHT30;61850;54.980;73.298;2023-01-13T06:31:17;-10.50;78.76
73570;SHT30;61850;54.980;73.298;2023-01-13T06:33:46;-10.40;78.58
73570;SHT30;61850;54.980;73.298;2023-01-13T06:36:18;-10.43;78.47
73570;SHT30;61850;54.980;73.298;2023-01-13T06:38:53;-10.40;78.35
73570;SHT30;61850;54.980;73.298;2023-01-13T06:41:19;-10.28;78.14
73570;SHT30;61850;54.980;73.298;2023-01-13T06:44:07;-10.21;77.99
73570;SHT30;61850;54.980;73.298;2023-01-13T06:46:34;-10.15;77.62
73570;SHT30;61850;54.980;73.298;2023-01-13T06:49:07;-10.08;77.58
73570;SHT30;61850;54.980;73.298;2023-01-13T06:51:44;-10.07;77.74
73570;SHT30;61850;54.980;73.298;2023-01-13T06:54:17;-10.04;77.48
73570;SHT30;61850;54.980;73.298;2023-01-13T06:56:54;-10.11;77.55
73570;SHT30;61850;54.980;73.298;2023-01-13T06:59:20;-10.05;77.60
73570;SHT30;61850;54.980;73.298;2023-01-13T07:01:47;-10.12;77.98
73570;SHT30;61850;54.980;73.298;2023-01-13T07:04:24;-9.95;77.75
73570;SHT30;61850;54.980;73.298;2023-01-13T07:06:50;-9.98;77.65
73570;SHT30;61850;54.980;73.298;2023-01-13T07:09:17;-10.02;77.69
73570;SHT30;61850;54.980;73.298;2023-01-13T07:11:52;-10.04;77.61
73570;SHT30;61850;54.980;73.298;2023-01-13T07:14:38;-10.08;77.57
73570;SHT30;61850;54.980;73.298;2023-01-13T07:17:33;-10.01;77.42
73570;SHT30;61850;54.980;73.298;2023-01-13T07:19:59;-10.12;77.39
73570;SHT30;61850;54.980;73.298;2023-01-13T07:22:35;-10.12;77.46
73570;SHT30;61850;54.980;73.298;2023-01-13T07:25:07;-10.15;77.43
73570;SHT30;61850;54.980;73.298;2023-01-13T07:27:34;-10.26;77.47
73570;SHT30;61850;54.980;73.298;2023-01-13T07:30:01;-10.29;77.36
73570;SHT30;61850;54.980;73.298;2023-01-13T07:32:30;-10.21;77.20
73570;SHT30;61850;54.980;73.298;2023-01-13T07:34:59;-10.18;77.05
73570;SHT30;61850;54.980;73.298;2023-01-13T07:37:40;-10.24;77.36
73570;SHT30;61850;54.980;73.298;2023-01-13T07:40:08;-10.24;77.00
73570;SHT30;61850;54.980;73.298;2023-01-13T07:42:36;-10.25;77.09
73570;SHT30;61850;54.980;73.298;2023-01-13T07:45:23;-10.28;77.05
73570;SHT30;61850;54.980;73.298;2023-01-13T07:47:50;-10.26;76.73
73570;SHT30;61850;54.980;73.298;2023-01-13T07:50:17;-10.39;76.66
73570;SHT30;61850;54.980;73.298;2023-01-13T07:52:43;-10.35;76.49
73570;SHT30;61850;54.980;73.298;2023-01-13T07:55:09;-10.48;76.62
73570;SHT30;61850;54.980;73.298;2023-01-13T07:57:35;-10.40;76.65
73570;SHT30;61850;54.980;73.298;2023-01-13T08:00:03;-10.38;76.58
73570;SHT30;61850;54.980;73.298;2023-01-13T08:02:30;-10.39;76.56
73570;SHT30;61850;54.980;73.298;2023-01-13T08:05:07;-10.36;76.51
73570;SHT30;61850;54.980;73.298;2023-01-13T08:07:33;-10.40;76.46
73570;SHT30;61850;54.980;73.298;2023-01-13T08:10:10;-10.39;76.70
73570;SHT30;61850;54.980;73.298;2023-01-13T08:12:36;-10.26;76.52
73570;SHT30;61850;54.980;73.298;2023-01-13T08:15:25;-10.35;76.54
73570;SHT30;61850;54.980;73.298;2023-01-13T08:17:51;-10.42;76.91
73570;SHT30;61850;54.980;73.298;2023-01-13T08:20:18;-10.40;77.02
73570;SHT30;61850;54.980;73.298;2023-01-13T08:22:44;-10.40;77.16
73570;SHT30;61850;54.980;73.298;2023-01-13T08:25:10;-10.43;76.83
73570;SHT30;61850;54.980;73.298;2023-01-13T08:27:47;-10.45;76.81
73570;SHT30;61850;54.980;73.298;2023-01-13T08:30:14;-10.49;76.87
73570;SHT30;61850;54.980;73.298;2023-01-13T08:32:44;-10.48;76.57
73570;SHT30;61850;54.980;73.298;2023-01-13T08:35:10;-10.52;76.51
73570;SHT30;61850;54.980;73.298;2023-01-13T08:37:37;-10.54;76.38
73570;SHT30;61850;54.980;73.298;2023-01-13T08:40:03;-10.56;76.43
73570;SHT30;61850;54.980;73.298;2023-01-13T08:42:30;-10.56;76.46
73570;SHT30;61850;54.980;73.298;2023-01-13T08:44:56;-10.52;76.42
73570;SHT30;61850;54.980;73.298;2023-01-13T08:47:22;-10.57;76.66
73570;SHT30;61850;54.980;73.298;2023-01-13T08:49:50;-10.56;76.67
73570;SHT30;61850;54.980;73.298;2023-01-13T08:52:22;-10.53;76.71
73570;SHT30;61850;54.980;73.298;2023-01-13T08:54:48;-10.54;76.66
73570;SHT30;61850;54.980;73.298;2023-01-13T08:57:15;-10.57;76.94
73570;SHT30;61850;54.980;73.298;2023-01-13T08:59:44;-10.57;76.92
73570;SHT30;61850;54.980;73.298;2023-01-13T09:02:11;-10.53;77.00
73570;SHT30;61850;54.980;73.298;2023-01-13T09:04:48;-10.54;77.14
73570;SHT30;61850;54.980;73.298;2023-01-13T09:07:14;-10.59;77.40
73570;SHT30;61850;54.980;73.298;2023-01-13T09:09:40;-10.57;77.91
73570;SHT30;61850;54.980;73.298;2023-01-13T09:12:09;-10.56;78.38
73570;SHT30;61850;54.980;73.298;2023-01-13T09:14:53;-10.57;78.62
73570;SHT30;61850;54.980;73.298;2023-01-13T09:17:19;-10.56;78.74
73570;SHT30;61850;54.980;73.298;2023-01-13T09:19:48;-10.64;79.32
73570;SHT30;61850;54.980;73.298;2023-01-13T09:22:15;-10.57;79.34
73570;SHT30;61850;54.980;73.298;2023-01-13T09:24:43;-10.53;79.47
73570;SHT30;61850;54.980;73.298;2023-01-13T09:27:09;-10.53;79.39
73570;SHT30;61850;54.980;73.298;2023-01-13T09:29:36;-10.53;79.50
73570;SHT30;61850;54.980;73.298;2023-01-13T09:32:02;-10.50;79.62
73570;SHT30;61850;54.980;73.298;2023-01-13T09:34:29;-10.52;79.72
73570;SHT30;61850;54.980;73.298;2023-01-13T09:37:15;-10.56;79.75
73570;SHT30;61850;54.980;73.298;2023-01-13T09:39:46;-10.53;79.75
73570;SHT30;61850;54.980;73.298;2023-01-13T09:42:31;-10.52;79.77
73570;SHT30;61850;54.980;73.298;2023-01-13T09:45:29;-10.52;79.75
73570;SHT30;61850;54.980;73.298;2023-01-13T09:48:20;-10.67;80.06
73570;SHT30;61850;54.980;73.298;2023-01-13T09:53:29;-10.61;80.07
73570;SHT30;61850;54.980;73.298;2023-01-13T09:55:57;-10.76;80.15
73570;SHT30;61850;54.980;73.298;2023-01-13T09:58:23;-10.70;80.24
73570;SHT30;61850;54.980;73.298;2023-01-13T10:00:58;-10.69;80.19
73570;SHT30;61850;54.980;73.298;2023-01-13T10:03:25;-10.70;80.03
73570;SHT30;61850;54.980;73.298;2023-01-13T10:08:28;-10.84;80.03
73570;SHT30;61850;54.980;73.298;2023-01-13T10:11:01;-10.85;80.06
73570;SHT30;61850;54.980;73.298;2023-01-13T10:13:58;-10.87;80.09
73570;SHT30;61850;54.980;73.298;2023-01-13T10:16:50;-10.90;79.99
73570;SHT30;61850;54.980;73.298;2023-01-13T10:19:21;-10.97;80.04
73570;SHT30;61850;54.980;73.298;2023-01-13T10:24:27;-10.96;80.04
73570;SHT30;61850;54.980;73.298;2023-01-13T10:27:52;-10.98;80.06
73570;SHT30;61850;54.980;73.298;2023-01-13T10:29:57;-11.05;80.14
73570;SHT30;61850;54.980;73.298;2023-01-13T10:32:23;-11.04;80.14
73570;SHT30;61850;54.980;73.298;2023-01-13T10:34:50;-11.08;80.07
73570;SHT30;61850;54.980;73.298;2023-01-13T10:37:20;-11.14;80.14
73570;SHT30;61850;54.980;73.298;2023-01-13T10:39:47;-11.11;80.13
73570;SHT30;61850;54.980;73.298;2023-01-13T10:42:19;-11.17;80.04
73570;SHT30;61850;54.980;73.298;2023-01-13T10:44:51;-11.17;80.05
73570;SHT30;61850;54.980;73.298;2023-01-13T10:47:24;-11.25;80.12
73570;SHT30;61850;54.980;73.298;2023-01-13T10:52:31;-11.46;80.45
73570;SHT30;61850;54.980;73.298;2023-01-13T10:54:58;-11.50;80.64
73570;SHT30;61850;54.980;73.298;2023-01-13T10:57:26;-11.53;80.88
73570;SHT30;61850;54.980;73.298;2023-01-13T11:00:03;-11.56;81.15
73570;SHT30;61850;54.980;73.298;2023-01-13T11:02:30;-11.65;81.31
73570;SHT30;61850;54.980;73.298;2023-01-13T11:07:35;-11.70;81.44
73570;SHT30;61850;54.980;73.298;2023-01-13T11:15:24;-11.93;81.75
73570;SHT30;61850;54.980;73.298;2023-01-13T11:18:03;-11.93;81.87
73570;SHT30;61850;54.980;73.298;2023-01-13T11:20:38;-12.01;81.79
73570;SHT30;61850;54.980;73.298;2023-01-13T11:23:10;-12.10;81.97
73570;SHT30;61850;54.980;73.298;2023-01-13T11:25:40;-12.13;82.00
73570;SHT30;61850;54.980;73.298;2023-01-13T11:28:16;-12.13;82.04
73570;SHT30;61850;54.980;73.298;2023-01-13T11:33:24;-12.10;82.24
73570;SHT30;61850;54.980;73.298;2023-01-13T11:36:05;-12.14;82.28
73570;SHT30;61850;54.980;73.298;2023-01-13T11:41:01;-12.21;82.33
73570;SHT30;61850;54.980;73.298;2023-01-13T11:45:57;-12.32;82.58
73570;SHT30;61850;54.980;73.298;2023-01-13T11:48:24;-12.41;82.84
73570;SHT30;61850;54.980;73.298;2023-01-13T12:07:10;-12.77;85.07
73570;SHT30;61850;54.980;73.298;2023-01-13T12:09:53;-12.87;85.39
73570;SHT30;61850;54.980;73.298;2023-01-13T12:15:16;-13.03;85.89
73570;SHT30;61850;54.980;73.298;2023-01-13T12:23:35;-13.07;86.52
73570;SHT30;61850;54.980;73.298;2023-01-13T12:26:14;-13.19;86.52
73570;SHT30;61850;54.980;73.298;2023-01-13T12:28:48;-13.28;86.76
73570;SHT30;61850;54.980;73.298;2023-01-13T12:31:16;-13.31;86.96
73570;SHT30;61850;54.980;73.298;2023-01-13T12:42:19;-13.50;87.43
73570;SHT30;61850;54.980;73.298;2023-01-13T12:47:36;-13.48;87.73
73570;SHT30;61850;54.980;73.298;2023-01-13T12:52:49;-13.40;87.59
73570;SHT30;61850;54.980;73.298;2023-01-13T12:55:34;-13.35;87.67
73570;SHT30;61850;54.980;73.298;2023-01-13T13:03:44;-13.32;87.11
73570;SHT30;61850;54.980;73.298;2023-01-13T13:11:48;-13.22;87.00
73570;SHT30;61850;54.980;73.298;2023-01-13T13:14:14;-13.19;86.79
73570;SHT30;61850;54.980;73.298;2023-01-13T13:24:33;-13.00;86.36
73570;SHT30;61850;54.980;73.298;2023-01-13T13:27:18;-13.06;86.10
73570;SHT30;61850;54.980;73.298;2023-01-13T13:29:59;-13.03;86.28
73570;SHT30;61850;54.980;73.298;2023-01-13T13:40:41;-12.93;86.09
73570;SHT30;61850;54.980;73.298;2023-01-13T13:43:28;-13.00;85.96
73570;SHT30;61850;54.980;73.298;2023-01-13T13:46:21;-12.98;86.45
73570;SHT30;61850;54.980;73.298;2023-01-13T13:49:06;-13.03;86.00
73570;SHT30;61850;54.980;73.298;2023-01-13T13:51:34;-12.94;86.18
73570;SHT30;61850;54.980;73.298;2023-01-13T13:54:09;-12.97;86.18
73570;SHT30;61850;54.980;73.298;2023-01-13T13:56:47;-12.94;86.18
73570;SHT30;61850;54.980;73.298;2023-01-13T13:59:25;-12.97;86.49
73570;SHT30;61850;54.980;73.298;2023-01-13T14:02:01;-12.90;86.66
73570;SHT30;61850;54.980;73.298;2023-01-13T14:04:34;-12.86;86.84
73570;SHT30;61850;54.980;73.298;2023-01-13T14:07:01;-12.90;86.82
73570;SHT30;61850;54.980;73.298;2023-01-13T14:09:43;-12.76;87.11
73570;SHT30;61850;54.980;73.298;2023-01-13T14:12:19;-12.70;86.90
73570;SHT30;61850;54.980;73.298;2023-01-13T14:14:56;-12.69;86.57
73570;SHT30;61850;54.980;73.298;2023-01-13T14:17:25;-12.67;86.50
73570;SHT30;61850;54.980;73.298;2023-01-13T14:20:03;-12.59;86.63
73570;SHT30;61850;54.980;73.298;2023-01-13T14:22:39;-12.53;86.94
73570;SHT30;61850;54.980;73.298;2023-01-13T14:25:30;-12.48;87.12
73570;SHT30;61850;54.980;73.298;2023-01-13T14:27:58;-12.37;87.19
73570;SHT30;61850;54.980;73.298;2023-01-13T14:30:34;-12.27;87.30
73570;SHT30;61850;54.980;73.298;2023-01-13T14:33:00;-12.20;87.11
73570;SHT30;61850;54.980;73.298;2023-01-13T14:35:28;-12.13;86.94
73570;SHT30;61850;54.980;73.298;2023-01-13T14:38:00;-12.10;86.75
73570;SHT30;61850;54.980;73.298;2023-01-13T14:40:47;-12.04;86.77
73570;SHT30;61850;54.980;73.298;2023-01-13T14:43:14;-11.95;86.92
73570;SHT30;61850;54.980;73.298;2023-01-13T14:45:58;-11.87;86.87
73570;SHT30;61850;54.980;73.298;2023-01-13T14:48:30;-11.84;86.65
73570;SHT30;61850;54.980;73.298;2023-01-13T14:51:05;-11.77;86.90
73570;SHT30;61850;54.980;73.298;2023-01-13T14:53:39;-11.71;86.76
73570;SHT30;61850;54.980;73.298;2023-01-13T15:01:48;-11.53;86.63
73570;SHT30;61850;54.980;73.298;2023-01-13T15:04:15;-11.50;86.53
73570;SHT30;61850;54.980;73.298;2023-01-13T15:06:46;-11.45;86.50
73570;SHT30;61850;54.980;73.298;2023-01-13T15:09:24;-11.36;86.48
73570;SHT30;61850;54.980;73.298;2023-01-13T15:12:11;-11.34;86.54
73570;SHT30;61850;54.980;73.298;2023-01-13T15:14:39;-11.25;86.49
73570;SHT30;61850;54.980;73.298;2023-01-13T15:17:16;-11.15;86.37
73570;SHT30;61850;54.980;73.298;2023-01-13T15:19:42;-11.05;86.07
73570;SHT30;61850;54.980;73.298;2023-01-13T15:22:09;-11.03;85.93
73570;SHT30;61850;54.980;73.298;2023-01-13T15:24:35;-10.94;85.88
73570;SHT30;61850;54.980;73.298;2023-01-13T15:27:01;-10.85;85.74
73570;SHT30;61850;54.980;73.298;2023-01-13T15:29:38;-10.83;85.46
73570;SHT30;61850;54.980;73.298;2023-01-13T15:32:16;-10.76;85.59
73570;SHT30;61850;54.980;73.298;2023-01-13T15:34:42;-10.66;85.39
73570;SHT30;61850;54.980;73.298;2023-01-13T15:37:09;-10.59;85.25
73570;SHT30;61850;54.980;73.298;2023-01-13T15:39:45;-10.57;85.03
73570;SHT30;61850;54.980;73.298;2023-01-13T15:42:22;-10.45;84.67
73570;SHT30;61850;54.980;73.298;2023-01-13T15:45:10;-10.39;84.41
73570;SHT30;61850;54.980;73.298;2023-01-13T15:48:09;-10.38;84.20
73570;SHT30;61850;54.980;73.298;2023-01-13T15:50:36;-10.33;83.85
73570;SHT30;61850;54.980;73.298;2023-01-13T15:53:02;-10.28;83.69
73570;SHT30;61850;54.980;73.298;2023-01-13T15:55:29;-10.28;83.50
73570;SHT30;61850;54.980;73.298;2023-01-13T15:57:55;-10.19;83.36
73570;SHT30;61850;54.980;73.298;2023-01-13T16:00:24;-10.24;83.31
73570;SHT30;61850;54.980;73.298;2023-01-13T16:02:50;-10.21;83.26
73570;SHT30;61850;54.980;73.298;2023-01-13T16:05:17;-10.26;83.29
73570;SHT30;61850;54.980;73.298;2023-01-13T16:07:48;-10.18;83.02
73570;SHT30;61850;54.980;73.298;2023-01-13T16:10:16;-10.22;82.95
73570;SHT30;61850;54.980;73.298;2023-01-13T16:12:42;-10.22;82.96
73570;SHT30;61850;54.980;73.298;2023-01-13T16:15:09;-10.15;82.91
73570;SHT30;61850;54.980;73.298;2023-01-13T16:17:38;-10.19;82.80
73570;SHT30;61850;54.980;73.298;2023-01-13T16:20:04;-10.18;82.74
73570;SHT30;61850;54.980;73.298;2023-01-13T16:22:30;-10.18;82.80
73570;SHT30;61850;54.980;73.298;2023-01-13T16:24:56;-10.11;82.73
73570;SHT30;61850;54.980;73.298;2023-01-13T16:27:27;-10.11;82.53
73570;SHT30;61850;54.980;73.298;2023-01-13T16:29:58;-10.11;82.53
73570;SHT30;61850;54.980;73.298;2023-01-13T16:32:24;-10.04;82.50
73570;SHT30;61850;54.980;73.298;2023-01-13T16:35:01;-10.04;82.42
73570;SHT30;61850;54.980;73.298;2023-01-13T16:37:37;-10.05;82.45
73570;SHT30;61850;54.980;73.298;2023-01-13T16:40:11;-10.04;82.47
73570;SHT30;61850;54.980;73.298;2023-01-13T16:42:42;-10.00;82.33
73570;SHT30;61850;54.980;73.298;2023-01-13T16:45:20;-10.00;82.30
73570;SHT30;61850;54.980;73.298;2023-01-13T16:47:46;-9.98;82.33
73570;SHT30;61850;54.980;73.298;2023-01-13T16:50:22;-9.95;82.37
73570;SHT30;61850;54.980;73.298;2023-01-13T16:53:03;-9.91;82.31
73570;SHT30;61850;54.980;73.298;2023-01-13T16:55:29;-9.94;82.40
73570;SHT30;61850;54.980;73.298;2023-01-13T16:58:05;-9.91;82.31
73570;SHT30;61850;54.980;73.298;2023-01-13T17:00:32;-9.90;82.23
73570;SHT30;61850;54.980;73.298;2023-01-13T17:03:09;-9.85;82.20
73570;SHT30;61850;54.980;73.298;2023-01-13T17:05:37;-9.89;82.15
73570;SHT30;61850;54.980;73.298;2023-01-13T17:08:04;-9.89;82.18
73570;SHT30;61850;54.980;73.298;2023-01-13T17:10:40;-9.84;82.18
73570;SHT30;61850;54.980;73.298;2023-01-13T17:13:06;-9.85;82.26
73570;SHT30;61850;54.980;73.298;2023-01-13T17:15:33;-9.82;82.31
73570;SHT30;61850;54.980;73.298;2023-01-13T17:18:10;-9.81;82.23
73570;SHT30;61850;54.980;73.298;2023-01-13T17:20:37;-9.81;82.22
73570;SHT30;61850;54.980;73.298;2023-01-13T17:23:08;-9.75;82.21
73570;SHT30;61850;54.980;73.298;2023-01-13T17:25:34;-9.80;82.36
73570;SHT30;61850;54.980;73.298;2023-01-13T17:28:00;-9.84;82.47
73570;SHT30;61850;54.980;73.298;2023-01-13T17:30:31;-9.77;82.39
73570;SHT30;61850;54.980;73.298;2023-01-13T17:32:57;-9.81;82.41
73570;SHT30;61850;54.980;73.298;2023-01-13T17:35:27;-9.75;82.25
73570;SHT30;61850;54.980;73.298;2023-01-13T17:38:02;-9.69;82.22
73570;SHT30;61850;54.980;73.298;2023-01-13T17:40:32;-9.74;82.29
73570;SHT30;61850;54.980;73.298;2023-01-13T17:43:03;-9.70;82.19
73570;SHT30;61850;54.980;73.298;2023-01-13T17:45:30;-9.70;82.19
73570;SHT30;61850;54.980;73.298;2023-01-13T17:47:56;-9.73;82.14
73570;SHT30;61850;54.980;73.298;2023-01-13T17:50:23;-9.74;82.32
73570;SHT30;61850;54.980;73.298;2023-01-13T17:52:55;-9.77;82.35
73570;SHT30;61850;54.980;73.298;2023-01-13T17:55:20;-9.81;82.35
73570;SHT30;61850;54.980;73.298;2023-01-13T17:57:56;-9.82;82.25
73570;SHT30;61850;54.980;73.298;2023-01-13T18:00:23;-9.78;82.22
73570;SHT30;61850;54.980;73.298;2023-01-13T18:02:49;-9.80;82.26
73570;SHT30;61850;54.980;73.298;2023-01-13T18:05:15;-9.81;82.05